BKP806 VHHH-VTSM
Flight info
| Callsign | BKP806 |
|---|---|
| Flight time | N/A |
| Altitude | 36000 |
| Route | PECAN V10 SIKOU/K0857S1100 A202 ASSAD/K0856F360 A202 VILAO/N0461F360 A202 RAMEI W42 REGOS/N0455F370 A464 UPNEP |
| Aircraft | A319/M-SDE3FGHIRWY/LB1 |
Departure
| Time | 2026-05-04 19:02 |
|---|---|
| Airport | Hong Kong International Airport (VHHH) |
Arrival
| Time | N/A |
|---|---|
| Airport | Samui International Airport (VTSM) |
| Time | Latitude | Longitude | Altitude | Speed | Heading |
|---|---|---|---|---|---|
| 2026-05-04 18:32 | 22.31748 | 113.93076 | 37 ft | 0 kts | 261° |
| 2026-05-04 18:50 | 22.31750 | 113.93089 | 37 ft | 4 kts | 263° |
| 2026-05-04 18:50 | 22.31752 | 113.93118 | 37 ft | 4 kts | 271° |
| 2026-05-04 18:50 | 22.31749 | 113.93147 | 37 ft | 4 kts | 290° |
| 2026-05-04 18:51 | 22.31736 | 113.93167 | 37 ft | 2 kts | 340° |
| 2026-05-04 18:51 | 22.31735 | 113.93168 | 37 ft | 0 kts | 341° |
| 2026-05-04 18:55 | 22.31749 | 113.93162 | 37 ft | 3 kts | 340° |
| 2026-05-04 18:55 | 22.31871 | 113.93063 | 35 ft | 15 kts | 259° |
| 2026-05-04 18:55 | 22.31839 | 113.92955 | 37 ft | 15 kts | 268° |
| 2026-05-04 18:56 | 22.31893 | 113.92866 | 37 ft | 15 kts | 277° |
| 2026-05-04 18:56 | 22.31865 | 113.92754 | 37 ft | 16 kts | 252° |
| 2026-05-04 18:56 | 22.31826 | 113.92632 | 37 ft | 21 kts | 250° |
| 2026-05-04 18:56 | 22.31774 | 113.92472 | 37 ft | 24 kts | 250° |
| 2026-05-04 18:57 | 22.31718 | 113.92301 | 36 ft | 25 kts | 250° |
| 2026-05-04 18:57 | 22.31660 | 113.92123 | 36 ft | 25 kts | 252° |
| 2026-05-04 18:57 | 22.31604 | 113.91944 | 37 ft | 25 kts | 252° |
| 2026-05-04 18:57 | 22.31547 | 113.91765 | 36 ft | 25 kts | 251° |
| 2026-05-04 18:58 | 22.31490 | 113.91591 | 37 ft | 25 kts | 250° |
| 2026-05-04 18:58 | 22.31432 | 113.91411 | 38 ft | 25 kts | 250° |
| 2026-05-04 18:58 | 22.31374 | 113.91231 | 38 ft | 26 kts | 250° |
| 2026-05-04 18:58 | 22.31335 | 113.91111 | 37 ft | 25 kts | 250° |
| 2026-05-04 18:59 | 22.31278 | 113.90932 | 37 ft | 25 kts | 251° |
| 2026-05-04 18:59 | 22.31222 | 113.90762 | 35 ft | 25 kts | 250° |
| 2026-05-04 18:59 | 22.31164 | 113.90581 | 36 ft | 26 kts | 251° |
| 2026-05-04 18:59 | 22.31106 | 113.90403 | 35 ft | 26 kts | 251° |
| 2026-05-04 19:00 | 22.31049 | 113.90227 | 35 ft | 23 kts | 251° |
| 2026-05-04 19:00 | 22.31002 | 113.90080 | 36 ft | 20 kts | 251° |
| 2026-05-04 19:00 | 22.30962 | 113.89957 | 35 ft | 16 kts | 252° |
| 2026-05-04 19:00 | 22.31021 | 113.89879 | 37 ft | 16 kts | 342° |
| 2026-05-04 19:01 | 22.31117 | 113.89876 | 35 ft | 15 kts | 48° |
| 2026-05-04 19:01 | 22.31161 | 113.89999 | 36 ft | 29 kts | 70° |
| 2026-05-04 19:01 | 22.31363 | 113.90632 | 35 ft | 103 kts | 71° |
| 2026-05-04 19:01 | 22.31546 | 113.91197 | 39 ft | 137 kts | 71° |
| 2026-05-04 19:02 | 22.31907 | 113.92307 | 236 ft | 163 kts | 72° |
| 2026-05-04 19:02 | 22.32281 | 113.93444 | 960 ft | 159 kts | 73° |
| 2026-05-04 19:02 | 22.32644 | 113.94569 | 1626 ft | 158 kts | 73° |
| 2026-05-04 19:02 | 22.33003 | 113.95690 | 2169 ft | 158 kts | 72° |
| 2026-05-04 19:03 | 22.33352 | 113.96814 | 2722 ft | 158 kts | 76° |
| 2026-05-04 19:03 | 22.33546 | 113.97988 | 3252 ft | 161 kts | 80° |
| 2026-05-04 19:03 | 22.33752 | 113.99253 | 3518 ft | 182 kts | 80° |
| 2026-05-04 19:03 | 22.33986 | 114.00674 | 3795 ft | 201 kts | 80° |
| 2026-05-04 19:04 | 22.34229 | 114.02182 | 4342 ft | 206 kts | 80° |
| 2026-05-04 19:04 | 22.34481 | 114.03736 | 4817 ft | 217 kts | 81° |
| 2026-05-04 19:04 | 22.34411 | 114.05429 | 5165 ft | 234 kts | 109° |
| 2026-05-04 19:04 | 22.33539 | 114.06919 | 5840 ft | 240 kts | 138° |
| 2026-05-04 19:05 | 22.32070 | 114.07775 | 6585 ft | 243 kts | 164° |
| 2026-05-04 19:05 | 22.30436 | 114.08250 | 7394 ft | 244 kts | 166° |
| 2026-05-04 19:05 | 22.28772 | 114.08639 | 8108 ft | 246 kts | 176° |
| 2026-05-04 19:05 | 22.27050 | 114.08672 | 8803 ft | 249 kts | 181° |
| 2026-05-04 19:06 | 22.25301 | 114.08683 | 9474 ft | 253 kts | 181° |
| 2026-05-04 19:06 | 22.23489 | 114.08686 | 9851 ft | 271 kts | 182° |
| 2026-05-04 19:06 | 22.21535 | 114.08669 | 10186 ft | 288 kts | 183° |
| 2026-05-04 19:06 | 22.19453 | 114.08649 | 10374 ft | 311 kts | 181° |
| 2026-05-04 19:07 | 22.17259 | 114.09150 | 10503 ft | 338 kts | 158° |
| 2026-05-04 19:07 | 22.15316 | 114.10673 | 10878 ft | 355 kts | 133° |
| 2026-05-04 19:07 | 22.13990 | 114.12959 | 11421 ft | 364 kts | 119° |
| 2026-05-04 19:07 | 22.12825 | 114.15405 | 11999 ft | 369 kts | 119° |
| 2026-05-04 19:08 | 22.11658 | 114.17887 | 12560 ft | 373 kts | 119° |
| 2026-05-04 19:08 | 22.10477 | 114.20401 | 13125 ft | 378 kts | 119° |
| 2026-05-04 19:08 | 22.09278 | 114.22936 | 13681 ft | 381 kts | 120° |
| 2026-05-04 19:08 | 22.07865 | 114.25355 | 14203 ft | 382 kts | 131° |
| 2026-05-04 19:09 | 22.06048 | 114.27444 | 14732 ft | 382 kts | 142° |
| 2026-05-04 19:09 | 22.03938 | 114.29183 | 15262 ft | 383 kts | 148° |
| 2026-05-04 19:09 | 22.01801 | 114.30846 | 15774 ft | 385 kts | 149° |
| 2026-05-04 19:09 | 21.99430 | 114.32152 | 16259 ft | 382 kts | 165° |
| 2026-05-04 19:10 | 21.96852 | 114.32738 | 16753 ft | 377 kts | 180° |
| 2026-05-04 19:10 | 21.94253 | 114.32572 | 17239 ft | 373 kts | 195° |
| 2026-05-04 19:10 | 21.91808 | 114.31693 | 17733 ft | 370 kts | 210° |
| 2026-05-04 19:10 | 21.89661 | 114.30199 | 18208 ft | 368 kts | 221° |
| 2026-05-04 19:11 | 21.87648 | 114.28479 | 18706 ft | 371 kts | 221° |
| 2026-05-04 19:11 | 21.85623 | 114.26748 | 19205 ft | 373 kts | 221° |
| 2026-05-04 19:11 | 21.83583 | 114.25007 | 19683 ft | 376 kts | 221° |
| 2026-05-04 19:11 | 21.81527 | 114.23254 | 20153 ft | 378 kts | 221° |
| 2026-05-04 19:12 | 21.79458 | 114.21493 | 20604 ft | 381 kts | 221° |
| 2026-05-04 19:12 | 21.75273 | 114.17943 | 21502 ft | 385 kts | 221° |
| 2026-05-04 19:12 | 21.73164 | 114.16148 | 21906 ft | 388 kts | 221° |
| 2026-05-04 19:13 | 21.71043 | 114.14346 | 22295 ft | 390 kts | 221° |
| 2026-05-04 19:13 | 21.68908 | 114.12536 | 22671 ft | 392 kts | 221° |
| 2026-05-04 19:13 | 21.66754 | 114.10720 | 23034 ft | 395 kts | 220° |
| 2026-05-04 19:13 | 21.64394 | 114.09169 | 23383 ft | 402 kts | 210° |
| 2026-05-04 19:14 | 21.61751 | 114.08111 | 23723 ft | 410 kts | 199° |
| 2026-05-04 19:14 | 21.58968 | 114.07389 | 24047 ft | 413 kts | 198° |
| 2026-05-04 19:14 | 21.56166 | 114.06670 | 24376 ft | 415 kts | 198° |
| 2026-05-04 19:14 | 21.53353 | 114.05946 | 24708 ft | 417 kts | 198° |
| 2026-05-04 19:15 | 21.50530 | 114.05216 | 25056 ft | 417 kts | 198° |
| 2026-05-04 19:15 | 21.47702 | 114.04485 | 25373 ft | 419 kts | 198° |
| 2026-05-04 19:15 | 21.44901 | 114.03637 | 25682 ft | 416 kts | 205° |
| 2026-05-04 19:15 | 21.42295 | 114.02328 | 25988 ft | 412 kts | 214° |
| 2026-05-04 19:16 | 21.39892 | 114.00658 | 26302 ft | 411 kts | 217° |
| 2026-05-04 19:16 | 21.37503 | 113.98958 | 26586 ft | 413 kts | 217° |
| 2026-05-04 19:16 | 21.35103 | 113.97257 | 26870 ft | 414 kts | 217° |
| 2026-05-04 19:16 | 21.32693 | 113.95553 | 27155 ft | 416 kts | 217° |
| 2026-05-04 19:17 | 21.30275 | 113.93845 | 27434 ft | 417 kts | 217° |
| 2026-05-04 19:17 | 21.27847 | 113.92132 | 27702 ft | 418 kts | 217° |
| 2026-05-04 19:17 | 21.25413 | 113.90415 | 27966 ft | 420 kts | 217° |
| 2026-05-04 19:17 | 21.22968 | 113.88690 | 28239 ft | 421 kts | 217° |
| 2026-05-04 19:18 | 21.20518 | 113.86963 | 28491 ft | 422 kts | 217° |
| 2026-05-04 19:18 | 21.18059 | 113.85231 | 28742 ft | 424 kts | 217° |
| 2026-05-04 19:18 | 21.15593 | 113.83495 | 28991 ft | 425 kts | 217° |
| 2026-05-04 19:18 | 21.13117 | 113.81750 | 29214 ft | 426 kts | 218° |
| 2026-05-04 19:19 | 21.10824 | 113.79767 | 29439 ft | 423 kts | 228° |
| 2026-05-04 19:19 | 21.08947 | 113.77421 | 29663 ft | 420 kts | 237° |
| 2026-05-04 19:19 | 21.07482 | 113.74730 | 29876 ft | 419 kts | 246° |
| 2026-05-04 19:19 | 21.06448 | 113.71820 | 30095 ft | 419 kts | 252° |
| 2026-05-04 19:20 | 21.05498 | 113.68868 | 30320 ft | 420 kts | 251° |
| 2026-05-04 19:20 | 21.04541 | 113.65907 | 30536 ft | 421 kts | 251° |
| 2026-05-04 19:20 | 21.03582 | 113.62940 | 30771 ft | 422 kts | 251° |
| 2026-05-04 19:20 | 21.02620 | 113.59976 | 31060 ft | 421 kts | 251° |
| 2026-05-04 19:21 | 21.01657 | 113.57017 | 31345 ft | 421 kts | 251° |
| 2026-05-04 19:21 | 21.00696 | 113.54066 | 31650 ft | 419 kts | 251° |
| 2026-05-04 19:21 | 20.99739 | 113.51119 | 31945 ft | 418 kts | 252° |
| 2026-05-04 19:21 | 20.98784 | 113.48183 | 32232 ft | 418 kts | 252° |
| 2026-05-04 19:22 | 20.97830 | 113.45247 | 32522 ft | 417 kts | 252° |
| 2026-05-04 19:22 | 20.96878 | 113.42317 | 32816 ft | 417 kts | 252° |
| 2026-05-04 19:22 | 20.95926 | 113.39393 | 33113 ft | 416 kts | 252° |
| 2026-05-04 19:22 | 20.94973 | 113.36475 | 33411 ft | 415 kts | 252° |
| 2026-05-04 19:23 | 20.94020 | 113.33563 | 33706 ft | 415 kts | 252° |
| 2026-05-04 19:23 | 20.93072 | 113.30653 | 34007 ft | 414 kts | 252° |
| 2026-05-04 19:23 | 20.92127 | 113.27746 | 34310 ft | 413 kts | 252° |
| 2026-05-04 19:23 | 20.91182 | 113.24846 | 34597 ft | 413 kts | 252° |
| 2026-05-04 19:24 | 20.90233 | 113.21945 | 34851 ft | 413 kts | 252° |
| 2026-05-04 19:24 | 20.89284 | 113.19049 | 35099 ft | 413 kts | 252° |
| 2026-05-04 19:24 | 20.88339 | 113.16154 | 35329 ft | 413 kts | 252° |
| 2026-05-04 19:24 | 20.87393 | 113.13255 | 35550 ft | 413 kts | 252° |
| 2026-05-04 19:25 | 20.86443 | 113.10359 | 35783 ft | 413 kts | 252° |
| 2026-05-04 19:25 | 20.85492 | 113.07462 | 36006 ft | 413 kts | 252° |
| 2026-05-04 19:25 | 20.84538 | 113.04566 | 36085 ft | 413 kts | 252° |
| 2026-05-04 19:26 | 20.82631 | 112.98774 | 36100 ft | 413 kts | 252° |
| 2026-05-04 19:26 | 20.80729 | 112.92988 | 36098 ft | 412 kts | 252° |
| 2026-05-04 19:27 | 20.78829 | 112.87204 | 36091 ft | 413 kts | 252° |
| 2026-05-04 19:27 | 20.76921 | 112.81420 | 36089 ft | 413 kts | 252° |
| 2026-05-04 19:28 | 20.75007 | 112.75640 | 36085 ft | 413 kts | 252° |
| 2026-05-04 19:28 | 20.73093 | 112.69850 | 36084 ft | 413 kts | 252° |
| 2026-05-04 19:29 | 20.71182 | 112.64061 | 36086 ft | 413 kts | 252° |
| 2026-05-04 19:29 | 20.69268 | 112.58270 | 36088 ft | 413 kts | 252° |
| 2026-05-04 19:30 | 20.67350 | 112.52482 | 36091 ft | 414 kts | 252° |
| 2026-05-04 19:30 | 20.65436 | 112.46735 | 36090 ft | 414 kts | 252° |
| 2026-05-04 19:31 | 20.63507 | 112.40953 | 36085 ft | 414 kts | 252° |
| 2026-05-04 19:31 | 20.61585 | 112.35164 | 36083 ft | 414 kts | 252° |
| 2026-05-04 19:32 | 20.59659 | 112.29376 | 36083 ft | 414 kts | 252° |
| 2026-05-04 19:32 | 20.57722 | 112.23592 | 36082 ft | 414 kts | 252° |
| 2026-05-04 19:33 | 20.56200 | 112.17699 | 36080 ft | 412 kts | 265° |
| 2026-05-04 19:33 | 20.56772 | 112.11649 | 36078 ft | 414 kts | 286° |
| 2026-05-04 19:34 | 20.59147 | 112.06020 | 36077 ft | 417 kts | 293° |
| 2026-05-04 19:34 | 20.61672 | 112.00441 | 36074 ft | 418 kts | 292° |
| 2026-05-04 19:35 | 20.64186 | 111.94850 | 36072 ft | 418 kts | 292° |
| 2026-05-04 19:35 | 20.66703 | 111.89255 | 36072 ft | 418 kts | 292° |
| 2026-05-04 19:36 | 20.69232 | 111.83655 | 36076 ft | 419 kts | 293° |
| 2026-05-04 19:36 | 20.71758 | 111.78053 | 36079 ft | 418 kts | 292° |
| 2026-05-04 19:37 | 20.74254 | 111.72487 | 36080 ft | 418 kts | 292° |
| 2026-05-04 19:37 | 20.76767 | 111.66885 | 36079 ft | 418 kts | 292° |
| 2026-05-04 19:38 | 20.79274 | 111.61287 | 36078 ft | 418 kts | 292° |
| 2026-05-04 19:38 | 20.81782 | 111.55687 | 36080 ft | 418 kts | 292° |
| 2026-05-04 19:38 | 20.82741 | 111.52779 | 36079 ft | 414 kts | 281° |
| 2026-05-04 19:39 | 20.83129 | 111.49743 | 36080 ft | 412 kts | 270° |
| 2026-05-04 19:39 | 20.82228 | 111.43733 | 36078 ft | 413 kts | 252° |
| 2026-05-04 19:40 | 20.80290 | 111.37952 | 36073 ft | 413 kts | 252° |
| 2026-05-04 19:40 | 20.78357 | 111.32166 | 36068 ft | 414 kts | 252° |
| 2026-05-04 19:41 | 20.76414 | 111.26374 | 36069 ft | 414 kts | 252° |
| 2026-05-04 19:41 | 20.74465 | 111.20581 | 36072 ft | 415 kts | 252° |
| 2026-05-04 19:42 | 20.72510 | 111.14786 | 36075 ft | 415 kts | 252° |
| 2026-05-04 19:42 | 20.70553 | 111.08995 | 36074 ft | 415 kts | 252° |
| 2026-05-04 19:43 | 20.68590 | 111.03197 | 36076 ft | 415 kts | 252° |
| 2026-05-04 19:43 | 20.66639 | 110.97407 | 36074 ft | 414 kts | 252° |
| 2026-05-04 19:44 | 20.64697 | 110.91660 | 36072 ft | 414 kts | 252° |
| 2026-05-04 19:44 | 20.62740 | 110.85873 | 36075 ft | 415 kts | 252° |
| 2026-05-04 19:45 | 20.60790 | 110.80075 | 36073 ft | 415 kts | 252° |
| 2026-05-04 19:45 | 20.58844 | 110.74272 | 36073 ft | 415 kts | 252° |
| 2026-05-04 19:46 | 20.56894 | 110.68468 | 36074 ft | 416 kts | 252° |
| 2026-05-04 19:46 | 20.54940 | 110.62661 | 36074 ft | 416 kts | 252° |
| 2026-05-04 19:47 | 20.52983 | 110.56860 | 36072 ft | 416 kts | 251° |
| 2026-05-04 19:47 | 20.51348 | 110.52035 | 36070 ft | 416 kts | 250° |
| 2026-05-04 19:48 | 20.48382 | 110.46725 | 36069 ft | 422 kts | 233° |
| 2026-05-04 19:48 | 20.44679 | 110.41886 | 36064 ft | 422 kts | 234° |
| 2026-05-04 19:49 | 20.40973 | 110.37029 | 36064 ft | 422 kts | 234° |
| 2026-05-04 19:49 | 20.37270 | 110.32169 | 36063 ft | 422 kts | 234° |
| 2026-05-04 19:50 | 20.33558 | 110.27313 | 36063 ft | 423 kts | 233° |